sensor_id;sensor_type;location;lat;lon;timestamp;P1;durP1;ratioP1;P2;durP2;ratioP2
2404;SDS011;1213;43.206;27.922;2023-04-03T00:00:27;6.00;;;5.17;;
2404;SDS011;1213;43.206;27.922;2023-04-03T00:02:53;9.10;;;5.87;;
2404;SDS011;1213;43.206;27.922;2023-04-03T00:05:18;12.40;;;7.70;;
2404;SDS011;1213;43.206;27.922;2023-04-03T00:07:43;9.80;;;6.80;;
2404;SDS011;1213;43.206;27.922;2023-04-03T00:10:09;9.07;;;7.40;;
2404;SDS011;1213;43.206;27.922;2023-04-03T00:12:34;15.83;;;6.80;;
2404;SDS011;1213;43.206;27.922;2023-04-03T00:14:59;7.80;;;5.73;;
2404;SDS011;1213;43.206;27.922;2023-04-03T00:17:25;7.90;;;6.27;;
2404;SDS011;1213;43.206;27.922;2023-04-03T00:19:50;9.97;;;6.17;;
2404;SDS011;1213;43.206;27.922;2023-04-03T00:22:15;6.77;;;5.90;;
2404;SDS011;1213;43.206;27.922;2023-04-03T00:24:41;10.10;;;7.60;;
2404;SDS011;1213;43.206;27.922;2023-04-03T00:27:06;14.90;;;10.43;;
2404;SDS011;1213;43.206;27.922;2023-04-03T00:29:32;16.13;;;11.40;;
2404;SDS011;1213;43.206;27.922;2023-04-03T00:31:57;11.90;;;9.00;;
2404;SDS011;1213;43.206;27.922;2023-04-03T00:34:22;9.83;;;8.40;;
2404;SDS011;1213;43.206;27.922;2023-04-03T00:36:48;9.83;;;7.97;;
2404;SDS011;1213;43.206;27.922;2023-04-03T00:39:13;9.00;;;7.03;;
2404;SDS011;1213;43.206;27.922;2023-04-03T00:41:38;5.77;;;5.17;;
2404;SDS011;1213;43.206;27.922;2023-04-03T00:44:20;6.77;;;5.20;;
2404;SDS011;1213;43.206;27.922;2023-04-03T00:46:45;11.60;;;4.57;;
2404;SDS011;1213;43.206;27.922;2023-04-03T00:49:10;5.63;;;4.70;;
2404;SDS011;1213;43.206;27.922;2023-04-03T00:51:36;4.57;;;4.10;;
2404;SDS011;1213;43.206;27.922;2023-04-03T00:54:03;5.73;;;4.63;;
2404;SDS011;1213;43.206;27.922;2023-04-03T00:56:29;7.37;;;5.00;;
2404;SDS011;1213;43.206;27.922;2023-04-03T00:59:30;9.73;;;5.57;;
2404;SDS011;1213;43.206;27.922;2023-04-03T01:01:50;9.40;;;5.43;;
2404;SDS011;1213;43.206;27.922;2023-04-03T01:06:53;10.27;;;6.57;;
2404;SDS011;1213;43.206;27.922;2023-04-03T01:09:19;7.73;;;5.13;;
2404;SDS011;1213;43.206;27.922;2023-04-03T01:11:44;8.53;;;6.43;;
2404;SDS011;1213;43.206;27.922;2023-04-03T01:14:10;7.60;;;6.60;;
2404;SDS011;1213;43.206;27.922;2023-04-03T01:16:35;10.60;;;8.40;;
2404;SDS011;1213;43.206;27.922;2023-04-03T01:19:00;16.70;;;8.33;;
2404;SDS011;1213;43.206;27.922;2023-04-03T01:26:29;8.63;;;6.40;;
2404;SDS011;1213;43.206;27.922;2023-04-03T01:28:55;18.30;;;8.07;;
2404;SDS011;1213;43.206;27.922;2023-04-03T01:31:27;6.87;;;5.00;;
2404;SDS011;1213;43.206;27.922;2023-04-03T01:33:53;5.20;;;4.70;;
2404;SDS011;1213;43.206;27.922;2023-04-03T01:36:21;4.13;;;3.73;;
2404;SDS011;1213;43.206;27.922;2023-04-03T01:38:46;6.37;;;5.77;;
2404;SDS011;1213;43.206;27.922;2023-04-03T01:41:11;8.20;;;6.73;;
2404;SDS011;1213;43.206;27.922;2023-04-03T01:43:37;11.63;;;6.47;;
2404;SDS011;1213;43.206;27.922;2023-04-03T01:46:02;6.77;;;6.07;;
2404;SDS011;1213;43.206;27.922;2023-04-03T01:48:27;7.67;;;6.13;;
2404;SDS011;1213;43.206;27.922;2023-04-03T01:50:53;7.00;;;5.23;;
2404;SDS011;1213;43.206;27.922;2023-04-03T01:53:18;5.13;;;4.67;;
2404;SDS011;1213;43.206;27.922;2023-04-03T01:55:43;8.10;;;6.10;;
2404;SDS011;1213;43.206;27.922;2023-04-03T01:58:09;16.57;;;8.17;;
2404;SDS011;1213;43.206;27.922;2023-04-03T02:00:34;13.97;;;6.30;;
2404;SDS011;1213;43.206;27.922;2023-04-03T02:03:01;9.70;;;6.60;;
2404;SDS011;1213;43.206;27.922;2023-04-03T02:05:26;17.70;;;8.27;;
2404;SDS011;1213;43.206;27.922;2023-04-03T02:07:51;7.37;;;6.37;;
2404;SDS011;1213;43.206;27.922;2023-04-03T02:10:16;18.83;;;7.43;;
2404;SDS011;1213;43.206;27.922;2023-04-03T02:12:42;3.67;;;3.20;;
2404;SDS011;1213;43.206;27.922;2023-04-03T02:15:07;13.00;;;8.97;;
2404;SDS011;1213;43.206;27.922;2023-04-03T02:17:33;11.60;;;8.83;;
2404;SDS011;1213;43.206;27.922;2023-04-03T02:19:59;21.90;;;13.20;;
2404;SDS011;1213;43.206;27.922;2023-04-03T02:22:24;21.30;;;12.87;;
2404;SDS011;1213;43.206;27.922;2023-04-03T02:24:50;21.67;;;16.27;;
2404;SDS011;1213;43.206;27.922;2023-04-03T02:27:16;36.77;;;16.50;;
2404;SDS011;1213;43.206;27.922;2023-04-03T02:29:41;27.60;;;17.97;;
2404;SDS011;1213;43.206;27.922;2023-04-03T02:32:07;29.37;;;18.67;;
2404;SDS011;1213;43.206;27.922;2023-04-03T02:34:32;23.77;;;14.57;;
2404;SDS011;1213;43.206;27.922;2023-04-03T02:36:57;24.20;;;16.17;;
2404;SDS011;1213;43.206;27.922;2023-04-03T02:39:23;23.77;;;15.63;;
2404;SDS011;1213;43.206;27.922;2023-04-03T02:41:48;27.20;;;20.00;;
2404;SDS011;1213;43.206;27.922;2023-04-03T02:44:13;33.60;;;21.77;;
2404;SDS011;1213;43.206;27.922;2023-04-03T02:46:39;34.30;;;19.10;;
2404;SDS011;1213;43.206;27.922;2023-04-03T02:49:04;28.47;;;19.13;;
2404;SDS011;1213;43.206;27.922;2023-04-03T02:51:29;29.20;;;19.13;;
2404;SDS011;1213;43.206;27.922;2023-04-03T02:53:55;28.93;;;18.50;;
2404;SDS011;1213;43.206;27.922;2023-04-03T02:56:20;23.93;;;17.23;;
2404;SDS011;1213;43.206;27.922;2023-04-03T02:58:46;24.10;;;15.50;;
2404;SDS011;1213;43.206;27.922;2023-04-03T03:01:12;21.50;;;13.70;;
2404;SDS011;1213;43.206;27.922;2023-04-03T03:03:38;20.40;;;15.67;;
2404;SDS011;1213;43.206;27.922;2023-04-03T03:06:07;17.83;;;11.07;;
2404;SDS011;1213;43.206;27.922;2023-04-03T03:08:33;21.50;;;13.93;;
2404;SDS011;1213;43.206;27.922;2023-04-03T03:10:59;19.50;;;12.67;;
2404;SDS011;1213;43.206;27.922;2023-04-03T03:13:24;21.33;;;10.60;;
2404;SDS011;1213;43.206;27.922;2023-04-03T03:15:50;23.17;;;13.87;;
2404;SDS011;1213;43.206;27.922;2023-04-03T03:18:15;25.67;;;17.90;;
2404;SDS011;1213;43.206;27.922;2023-04-03T03:20:40;23.20;;;16.10;;
2404;SDS011;1213;43.206;27.922;2023-04-03T03:23:05;27.40;;;17.67;;
2404;SDS011;1213;43.206;27.922;2023-04-03T03:25:31;12.80;;;9.83;;
2404;SDS011;1213;43.206;27.922;2023-04-03T03:27:56;16.43;;;9.20;;
2404;SDS011;1213;43.206;27.922;2023-04-03T03:30:21;15.07;;;8.57;;
2404;SDS011;1213;43.206;27.922;2023-04-03T03:32:46;7.93;;;6.53;;
2404;SDS011;1213;43.206;27.922;2023-04-03T03:35:12;22.70;;;12.00;;
2404;SDS011;1213;43.206;27.922;2023-04-03T03:37:37;11.30;;;8.37;;
2404;SDS011;1213;43.206;27.922;2023-04-03T03:40:02;9.17;;;6.53;;
2404;SDS011;1213;43.206;27.922;2023-04-03T03:42:28;12.73;;;10.47;;
2404;SDS011;1213;43.206;27.922;2023-04-03T03:44:53;14.70;;;10.67;;
2404;SDS011;1213;43.206;27.922;2023-04-03T03:47:18;20.60;;;11.90;;
2404;SDS011;1213;43.206;27.922;2023-04-03T03:49:43;8.37;;;7.30;;
2404;SDS011;1213;43.206;27.922;2023-04-03T03:52:09;15.33;;;8.40;;
2404;SDS011;1213;43.206;27.922;2023-04-03T03:54:37;24.73;;;13.03;;
2404;SDS011;1213;43.206;27.922;2023-04-03T03:57:03;18.77;;;11.90;;
2404;SDS011;1213;43.206;27.922;2023-04-03T03:59:28;22.57;;;14.63;;
2404;SDS011;1213;43.206;27.922;2023-04-03T04:01:53;18.33;;;12.40;;
2404;SDS011;1213;43.206;27.922;2023-04-03T04:04:19;18.73;;;11.97;;
2404;SDS011;1213;43.206;27.922;2023-04-03T04:06:45;29.60;;;15.77;;
2404;SDS011;1213;43.206;27.922;2023-04-03T04:09:12;20.63;;;13.53;;
2404;SDS011;1213;43.206;27.922;2023-04-03T04:11:37;24.20;;;14.03;;
2404;SDS011;1213;43.206;27.922;2023-04-03T04:14:06;23.70;;;13.53;;
2404;SDS011;1213;43.206;27.922;2023-04-03T04:16:32;20.20;;;10.47;;
2404;SDS011;1213;43.206;27.922;2023-04-03T04:18:57;17.60;;;9.60;;
2404;SDS011;1213;43.206;27.922;2023-04-03T04:21:22;18.53;;;11.93;;
2404;SDS011;1213;43.206;27.922;2023-04-03T04:23:47;20.97;;;13.67;;
2404;SDS011;1213;43.206;27.922;2023-04-03T04:26:13;13.27;;;8.57;;
2404;SDS011;1213;43.206;27.922;2023-04-03T04:28:38;15.07;;;8.70;;
2404;SDS011;1213;43.206;27.922;2023-04-03T04:31:03;10.90;;;9.37;;
2404;SDS011;1213;43.206;27.922;2023-04-03T04:33:29;12.10;;;8.60;;
2404;SDS011;1213;43.206;27.922;2023-04-03T04:35:54;11.83;;;8.17;;
2404;SDS011;1213;43.206;27.922;2023-04-03T04:38:20;13.77;;;8.10;;
2404;SDS011;1213;43.206;27.922;2023-04-03T04:40:46;11.90;;;7.10;;
2404;SDS011;1213;43.206;27.922;2023-04-03T04:43:12;10.73;;;6.73;;
2404;SDS011;1213;43.206;27.922;2023-04-03T04:45:39;8.90;;;6.83;;
2404;SDS011;1213;43.206;27.922;2023-04-03T04:48:04;6.60;;;5.40;;
2404;SDS011;1213;43.206;27.922;2023-04-03T04:50:30;7.03;;;6.33;;
2404;SDS011;1213;43.206;27.922;2023-04-03T04:52:55;5.90;;;3.80;;
2404;SDS011;1213;43.206;27.922;2023-04-03T04:55:20;10.53;;;5.97;;
2404;SDS011;1213;43.206;27.922;2023-04-03T04:57:46;8.27;;;5.30;;
2404;SDS011;1213;43.206;27.922;2023-04-03T05:00:12;8.47;;;4.70;;
2404;SDS011;1213;43.206;27.922;2023-04-03T05:02:38;14.47;;;6.40;;
2404;SDS011;1213;43.206;27.922;2023-04-03T05:05:03;7.97;;;4.30;;
2404;SDS011;1213;43.206;27.922;2023-04-03T05:07:28;5.67;;;3.43;;
2404;SDS011;1213;43.206;27.922;2023-04-03T05:09:54;4.03;;;3.63;;
2404;SDS011;1213;43.206;27.922;2023-04-03T05:12:19;5.50;;;4.93;;
2404;SDS011;1213;43.206;27.922;2023-04-03T05:14:44;7.97;;;6.13;;
2404;SDS011;1213;43.206;27.922;2023-04-03T05:17:10;8.43;;;6.53;;
2404;SDS011;1213;43.206;27.922;2023-04-03T05:19:35;11.20;;;7.77;;
2404;SDS011;1213;43.206;27.922;2023-04-03T05:22:00;17.60;;;9.30;;
2404;SDS011;1213;43.206;27.922;2023-04-03T05:24:25;12.07;;;7.40;;
2404;SDS011;1213;43.206;27.922;2023-04-03T05:26:51;10.60;;;7.40;;
2404;SDS011;1213;43.206;27.922;2023-04-03T05:29:16;6.90;;;4.20;;
2404;SDS011;1213;43.206;27.922;2023-04-03T05:31:41;10.43;;;7.53;;
2404;SDS011;1213;43.206;27.922;2023-04-03T05:34:07;10.60;;;7.77;;
2404;SDS011;1213;43.206;27.922;2023-04-03T05:36:32;13.70;;;7.00;;
2404;SDS011;1213;43.206;27.922;2023-04-03T05:38:57;6.93;;;6.23;;
2404;SDS011;1213;43.206;27.922;2023-04-03T05:41:24;9.17;;;5.17;;
2404;SDS011;1213;43.206;27.922;2023-04-03T05:43:50;13.00;;;7.57;;
2404;SDS011;1213;43.206;27.922;2023-04-03T05:46:16;14.97;;;7.50;;
2404;SDS011;1213;43.206;27.922;2023-04-03T05:48:41;9.97;;;6.80;;
2404;SDS011;1213;43.206;27.922;2023-04-03T05:51:07;8.30;;;4.87;;
2404;SDS011;1213;43.206;27.922;2023-04-03T05:53:33;4.33;;;4.00;;
2404;SDS011;1213;43.206;27.922;2023-04-03T05:56:00;8.87;;;5.73;;
2404;SDS011;1213;43.206;27.922;2023-04-03T05:58:25;3.80;;;3.00;;
2404;SDS011;1213;43.206;27.922;2023-04-03T06:00:51;4.03;;;2.77;;
2404;SDS011;1213;43.206;27.922;2023-04-03T06:03:16;8.50;;;5.00;;
2404;SDS011;1213;43.206;27.922;2023-04-03T06:05:41;9.57;;;5.63;;
2404;SDS011;1213;43.206;27.922;2023-04-03T06:08:07;5.17;;;4.67;;
2404;SDS011;1213;43.206;27.922;2023-04-03T06:10:34;9.63;;;6.22;;
2404;SDS011;1213;43.206;27.922;2023-04-03T06:12:59;10.47;;;6.13;;
2404;SDS011;1213;43.206;27.922;2023-04-03T06:15:24;9.40;;;5.87;;
2404;SDS011;1213;43.206;27.922;2023-04-03T06:17:50;6.70;;;5.57;;
2404;SDS011;1213;43.206;27.922;2023-04-03T06:20:15;6.47;;;3.60;;
2404;SDS011;1213;43.206;27.922;2023-04-03T06:22:41;6.50;;;3.10;;
2404;SDS011;1213;43.206;27.922;2023-04-03T06:25:07;3.57;;;2.70;;
2404;SDS011;1213;43.206;27.922;2023-04-03T06:27:32;3.77;;;2.90;;
2404;SDS011;1213;43.206;27.922;2023-04-03T06:29:58;3.07;;;2.63;;
2404;SDS011;1213;43.206;27.922;2023-04-03T06:32:23;2.60;;;2.40;;
2404;SDS011;1213;43.206;27.922;2023-04-03T06:34:48;9.60;;;4.80;;
2404;SDS011;1213;43.206;27.922;2023-04-03T06:37:17;30.47;;;17.80;;
2404;SDS011;1213;43.206;27.922;2023-04-03T06:39:43;5.53;;;4.93;;
2404;SDS011;1213;43.206;27.922;2023-04-03T06:42:08;9.70;;;4.70;;
2404;SDS011;1213;43.206;27.922;2023-04-03T06:44:34;6.47;;;4.90;;
2404;SDS011;1213;43.206;27.922;2023-04-03T06:46:59;7.37;;;4.37;;
2404;SDS011;1213;43.206;27.922;2023-04-03T06:49:25;4.60;;;4.00;;
2404;SDS011;1213;43.206;27.922;2023-04-03T06:51:51;8.47;;;3.40;;
2404;SDS011;1213;43.206;27.922;2023-04-03T06:54:17;7.87;;;4.30;;
2404;SDS011;1213;43.206;27.922;2023-04-03T06:56:43;5.37;;;4.40;;
2404;SDS011;1213;43.206;27.922;2023-04-03T06:59:09;4.10;;;3.73;;
2404;SDS011;1213;43.206;27.922;2023-04-03T07:01:34;4.03;;;3.20;;
2404;SDS011;1213;43.206;27.922;2023-04-03T07:04:00;7.27;;;4.60;;
2404;SDS011;1213;43.206;27.922;2023-04-03T07:06:25;4.30;;;3.73;;
2404;SDS011;1213;43.206;27.922;2023-04-03T07:08:53;4.00;;;3.13;;
2404;SDS011;1213;43.206;27.922;2023-04-03T07:11:19;8.33;;;4.00;;
2404;SDS011;1213;43.206;27.922;2023-04-03T07:13:45;8.20;;;4.13;;
2404;SDS011;1213;43.206;27.922;2023-04-03T07:16:11;7.80;;;3.67;;
2404;SDS011;1213;43.206;27.922;2023-04-03T07:18:37;4.10;;;3.70;;
2404;SDS011;1213;43.206;27.922;2023-04-03T07:21:03;6.37;;;4.20;;
2404;SDS011;1213;43.206;27.922;2023-04-03T07:23:28;5.83;;;4.10;;
2404;SDS011;1213;43.206;27.922;2023-04-03T07:25:54;2.60;;;2.40;;
2404;SDS011;1213;43.206;27.922;2023-04-03T07:28:21;3.53;;;2.80;;
2404;SDS011;1213;43.206;27.922;2023-04-03T07:31:20;4.10;;;3.70;;
2404;SDS011;1213;43.206;27.922;2023-04-03T07:33:40;4.90;;;3.70;;
2404;SDS011;1213;43.206;27.922;2023-04-03T07:36:06;3.47;;;3.17;;
2404;SDS011;1213;43.206;27.922;2023-04-03T07:38:34;3.67;;;2.80;;
2404;SDS011;1213;43.206;27.922;2023-04-03T07:41:00;4.73;;;2.93;;
2404;SDS011;1213;43.206;27.922;2023-04-03T07:43:26;3.33;;;2.23;;
2404;SDS011;1213;43.206;27.922;2023-04-03T07:45:51;2.90;;;2.47;;
2404;SDS011;1213;43.206;27.922;2023-04-03T07:48:17;6.77;;;2.97;;
2404;SDS011;1213;43.206;27.922;2023-04-03T07:50:43;3.63;;;3.30;;
2404;SDS011;1213;43.206;27.922;2023-04-03T07:53:08;6.13;;;3.70;;
2404;SDS011;1213;43.206;27.922;2023-04-03T07:55:34;5.37;;;4.87;;
2404;SDS011;1213;43.206;27.922;2023-04-03T07:57:59;5.20;;;3.80;;
2404;SDS011;1213;43.206;27.922;2023-04-03T08:00:25;4.53;;;3.43;;
2404;SDS011;1213;43.206;27.922;2023-04-03T08:02:50;10.00;;;3.70;;
2404;SDS011;1213;43.206;27.922;2023-04-03T08:05:19;4.90;;;3.23;;
2404;SDS011;1213;43.206;27.922;2023-04-03T08:07:45;6.60;;;3.30;;
2404;SDS011;1213;43.206;27.922;2023-04-03T08:10:11;3.17;;;2.97;;
2404;SDS011;1213;43.206;27.922;2023-04-03T08:12:37;6.53;;;3.00;;
2404;SDS011;1213;43.206;27.922;2023-04-03T08:15:02;6.47;;;4.30;;
2404;SDS011;1213;43.206;27.922;2023-04-03T08:17:28;8.83;;;4.50;;
2404;SDS011;1213;43.206;27.922;2023-04-03T08:19:53;4.50;;;3.70;;
2404;SDS011;1213;43.206;27.922;2023-04-03T08:22:18;7.13;;;4.87;;
2404;SDS011;1213;43.206;27.922;2023-04-03T08:24:44;4.90;;;3.20;;
2404;SDS011;1213;43.206;27.922;2023-04-03T08:27:10;4.47;;;3.90;;
2404;SDS011;1213;43.206;27.922;2023-04-03T08:29:35;3.70;;;3.10;;
2404;SDS011;1213;43.206;27.922;2023-04-03T08:32:02;4.60;;;3.40;;
2404;SDS011;1213;43.206;27.922;2023-04-03T08:34:28;3.07;;;2.73;;
2404;SDS011;1213;43.206;27.922;2023-04-03T08:36:53;3.53;;;3.23;;
2404;SDS011;1213;43.206;27.922;2023-04-03T08:39:18;4.03;;;3.73;;
2404;SDS011;1213;43.206;27.922;2023-04-03T08:41:44;3.77;;;3.00;;
2404;SDS011;1213;43.206;27.922;2023-04-03T08:51:54;4.20;;;3.80;;
2404;SDS011;1213;43.206;27.922;2023-04-03T08:55:03;4.23;;;3.57;;
2404;SDS011;1213;43.206;27.922;2023-04-03T08:57:09;3.50;;;3.20;;
2404;SDS011;1213;43.206;27.922;2023-04-03T08:59:36;4.80;;;3.70;;
2404;SDS011;1213;43.206;27.922;2023-04-03T09:02:04;5.10;;;4.40;;
2404;SDS011;1213;43.206;27.922;2023-04-03T09:04:37;4.50;;;3.63;;
2404;SDS011;1213;43.206;27.922;2023-04-03T09:07:07;5.63;;;3.70;;
2404;SDS011;1213;43.206;27.922;2023-04-03T09:09:37;4.25;;;3.88;;
2404;SDS011;1213;43.206;27.922;2023-04-03T09:12:15;4.10;;;3.70;;
2404;SDS011;1213;43.206;27.922;2023-04-03T09:14:45;5.90;;;4.20;;
2404;SDS011;1213;43.206;27.922;2023-04-03T09:22:42;5.47;;;4.50;;
2404;SDS011;1213;43.206;27.922;2023-04-03T09:25:13;4.10;;;3.57;;
2404;SDS011;1213;43.206;27.922;2023-04-03T09:27:39;4.30;;;3.80;;
2404;SDS011;1213;43.206;27.922;2023-04-03T09:30:05;4.57;;;3.80;;
2404;SDS011;1213;43.206;27.922;2023-04-03T09:32:35;4.10;;;3.70;;
2404;SDS011;1213;43.206;27.922;2023-04-03T09:35:03;5.90;;;3.77;;
2404;SDS011;1213;43.206;27.922;2023-04-03T09:37:33;5.30;;;4.00;;
2404;SDS011;1213;43.206;27.922;2023-04-03T09:40:00;7.00;;;3.63;;
2404;SDS011;1213;43.206;27.922;2023-04-03T09:42:26;4.60;;;3.97;;
2404;SDS011;1213;43.206;27.922;2023-04-03T09:44:55;3.80;;;3.40;;
2404;SDS011;1213;43.206;27.922;2023-04-03T09:47:34;4.30;;;3.80;;
2404;SDS011;1213;43.206;27.922;2023-04-03T09:52:39;6.70;;;3.67;;
2404;SDS011;1213;43.206;27.922;2023-04-03T09:55:07;4.57;;;3.70;;
2404;SDS011;1213;43.206;27.922;2023-04-03T09:57:32;7.43;;;3.53;;
2404;SDS011;1213;43.206;27.922;2023-04-03T09:59:59;3.80;;;3.47;;
2404;SDS011;1213;43.206;27.922;2023-04-03T10:04:56;3.73;;;3.30;;
2404;SDS011;1213;43.206;27.922;2023-04-03T10:07:26;4.60;;;4.10;;
2404;SDS011;1213;43.206;27.922;2023-04-03T10:09:55;6.03;;;3.93;;
2404;SDS011;1213;43.206;27.922;2023-04-03T10:12:21;4.80;;;4.00;;
2404;SDS011;1213;43.206;27.922;2023-04-03T10:17:28;4.13;;;3.73;;
2404;SDS011;1213;43.206;27.922;2023-04-03T10:30:27;3.90;;;3.00;;
2404;SDS011;1213;43.206;27.922;2023-04-03T10:32:48;3.60;;;3.30;;
2404;SDS011;1213;43.206;27.922;2023-04-03T10:45:26;3.63;;;3.10;;
2404;SDS011;1213;43.206;27.922;2023-04-03T10:50:39;3.37;;;2.80;;
2404;SDS011;1213;43.206;27.922;2023-04-03T10:55:35;3.20;;;2.47;;
2404;SDS011;1213;43.206;27.922;2023-04-03T10:58:02;4.50;;;2.50;;
2404;SDS011;1213;43.206;27.922;2023-04-03T11:00:42;2.73;;;2.20;;
2404;SDS011;1213;43.206;27.922;2023-04-03T11:03:33;3.00;;;2.50;;
2404;SDS011;1213;43.206;27.922;2023-04-03T11:05:56;7.60;;;2.30;;
2404;SDS011;1213;43.206;27.922;2023-04-03T11:11:09;2.27;;;2.10;;
2404;SDS011;1213;43.206;27.922;2023-04-03T11:13:38;4.10;;;3.10;;
2404;SDS011;1213;43.206;27.922;2023-04-03T11:16:05;9.90;;;7.53;;
2404;SDS011;1213;43.206;27.922;2023-04-03T11:18:35;3.43;;;3.10;;
2404;SDS011;1213;43.206;27.922;2023-04-03T11:21:04;4.30;;;2.87;;
2404;SDS011;1213;43.206;27.922;2023-04-03T11:23:33;3.40;;;2.97;;
2404;SDS011;1213;43.206;27.922;2023-04-03T11:26:10;3.57;;;3.27;;
2404;SDS011;1213;43.206;27.922;2023-04-03T11:28:36;3.07;;;2.80;;
2404;SDS011;1213;43.206;27.922;2023-04-03T11:31:07;3.20;;;2.30;;
2404;SDS011;1213;43.206;27.922;2023-04-03T11:38:46;4.40;;;4.00;;
2404;SDS011;1213;43.206;27.922;2023-04-03T11:41:12;5.10;;;4.60;;
2404;SDS011;1213;43.206;27.922;2023-04-03T11:43:42;2.67;;;2.47;;
2404;SDS011;1213;43.206;27.922;2023-04-03T11:46:19;6.53;;;2.50;;
2404;SDS011;1213;43.206;27.922;2023-04-03T11:48:45;3.67;;;3.33;;
2404;SDS011;1213;43.206;27.922;2023-04-03T11:53:37;3.73;;;2.97;;
2404;SDS011;1213;43.206;27.922;2023-04-03T12:04:16;8.13;;;7.33;;
2404;SDS011;1213;43.206;27.922;2023-04-03T12:09:32;8.13;;;6.23;;
2404;SDS011;1213;43.206;27.922;2023-04-03T12:11:59;4.27;;;3.73;;
2404;SDS011;1213;43.206;27.922;2023-04-03T12:14:26;3.67;;;3.33;;
2404;SDS011;1213;43.206;27.922;2023-04-03T12:16:55;4.13;;;3.30;;
2404;SDS011;1213;43.206;27.922;2023-04-03T12:19:38;4.90;;;4.37;;
2404;SDS011;1213;43.206;27.922;2023-04-03T12:22:15;5.47;;;4.90;;
2404;SDS011;1213;43.206;27.922;2023-04-03T12:24:45;5.50;;;3.80;;
2404;SDS011;1213;43.206;27.922;2023-04-03T12:37:54;6.83;;;4.63;;
2404;SDS011;1213;43.206;27.922;2023-04-03T12:40:25;6.60;;;4.47;;
2404;SDS011;1213;43.206;27.922;2023-04-03T12:45:20;8.77;;;4.27;;
2404;SDS011;1213;43.206;27.922;2023-04-03T12:47:45;5.17;;;4.37;;
2404;SDS011;1213;43.206;27.922;2023-04-03T12:52:47;8.20;;;3.80;;
2404;SDS011;1213;43.206;27.922;2023-04-03T12:55:18;5.27;;;4.23;;
2404;SDS011;1213;43.206;27.922;2023-04-03T12:57:45;6.70;;;3.43;;
2404;SDS011;1213;43.206;27.922;2023-04-03T13:00:20;5.00;;;4.00;;
2404;SDS011;1213;43.206;27.922;2023-04-03T13:02:46;5.50;;;4.13;;
2404;SDS011;1213;43.206;27.922;2023-04-03T13:05:16;5.33;;;3.70;;
2404;SDS011;1213;43.206;27.922;2023-04-03T13:07:42;5.93;;;3.53;;
2404;SDS011;1213;43.206;27.922;2023-04-03T13:12:55;4.83;;;3.80;;
2404;SDS011;1213;43.206;27.922;2023-04-03T13:15:23;7.00;;;3.80;;
2404;SDS011;1213;43.206;27.922;2023-04-03T13:17:50;3.77;;;3.20;;
2404;SDS011;1213;43.206;27.922;2023-04-03T13:25:23;6.37;;;4.10;;
2404;SDS011;1213;43.206;27.922;2023-04-03T13:27:49;4.33;;;3.80;;
2404;SDS011;1213;43.206;27.922;2023-04-03T13:30:23;4.73;;;3.63;;
2404;SDS011;1213;43.206;27.922;2023-04-03T13:32:49;9.13;;;3.50;;
2404;SDS011;1213;43.206;27.922;2023-04-03T13:35:28;15.10;;;3.83;;
2404;SDS011;1213;43.206;27.922;2023-04-03T13:37:55;4.50;;;4.10;;
2404;SDS011;1213;43.206;27.922;2023-04-03T13:40:21;3.87;;;3.47;;
2404;SDS011;1213;43.206;27.922;2023-04-03T13:42:46;4.63;;;3.10;;
2404;SDS011;1213;43.206;27.922;2023-04-03T13:45:24;5.73;;;3.60;;
2404;SDS011;1213;43.206;27.922;2023-04-03T13:47:52;4.67;;;3.70;;
2404;SDS011;1213;43.206;27.922;2023-04-03T13:50:19;4.23;;;3.10;;
2404;SDS011;1213;43.206;27.922;2023-04-03T13:52:46;5.43;;;3.33;;
2404;SDS011;1213;43.206;27.922;2023-04-03T13:55:18;7.57;;;3.70;;
2404;SDS011;1213;43.206;27.922;2023-04-03T13:57:52;6.90;;;5.20;;
2404;SDS011;1213;43.206;27.922;2023-04-03T14:00:19;6.40;;;4.28;;
2404;SDS011;1213;43.206;27.922;2023-04-03T14:02:46;5.97;;;4.43;;
2404;SDS011;1213;43.206;27.922;2023-04-03T14:05:12;5.17;;;3.63;;
2404;SDS011;1213;43.206;27.922;2023-04-03T14:07:37;4.10;;;3.50;;
2404;SDS011;1213;43.206;27.922;2023-04-03T14:10:03;13.93;;;4.93;;
2404;SDS011;1213;43.206;27.922;2023-04-03T14:12:35;4.97;;;3.50;;
2404;SDS011;1213;43.206;27.922;2023-04-03T14:15:03;4.97;;;3.43;;
2404;SDS011;1213;43.206;27.922;2023-04-03T14:17:32;5.40;;;3.70;;
2404;SDS011;1213;43.206;27.922;2023-04-03T14:19:57;4.67;;;3.77;;
2404;SDS011;1213;43.206;27.922;2023-04-03T14:22:24;5.97;;;3.60;;
2404;SDS011;1213;43.206;27.922;2023-04-03T14:24:50;4.03;;;2.80;;
2404;SDS011;1213;43.206;27.922;2023-04-03T14:27:24;5.57;;;4.03;;
2404;SDS011;1213;43.206;27.922;2023-04-03T14:29:52;5.40;;;4.13;;
2404;SDS011;1213;43.206;27.922;2023-04-03T14:32:18;6.93;;;3.40;;
2404;SDS011;1213;43.206;27.922;2023-04-03T14:34:44;6.77;;;3.60;;
2404;SDS011;1213;43.206;27.922;2023-04-03T14:37:11;6.60;;;3.97;;
2404;SDS011;1213;43.206;27.922;2023-04-03T14:39:36;4.90;;;3.90;;
2404;SDS011;1213;43.206;27.922;2023-04-03T14:42:02;5.97;;;4.00;;
2404;SDS011;1213;43.206;27.922;2023-04-03T14:44:27;8.23;;;5.63;;
2404;SDS011;1213;43.206;27.922;2023-04-03T14:46:52;6.47;;;4.30;;
2404;SDS011;1213;43.206;27.922;2023-04-03T14:49:19;4.07;;;3.53;;
2404;SDS011;1213;43.206;27.922;2023-04-03T14:51:45;5.93;;;4.40;;
2404;SDS011;1213;43.206;27.922;2023-04-03T14:54:15;8.40;;;3.80;;
2404;SDS011;1213;43.206;27.922;2023-04-03T14:56:41;4.20;;;3.50;;
2404;SDS011;1213;43.206;27.922;2023-04-03T14:59:08;5.93;;;3.80;;
2404;SDS011;1213;43.206;27.922;2023-04-03T15:01:34;4.80;;;4.03;;
2404;SDS011;1213;43.206;27.922;2023-04-03T15:03:59;6.17;;;3.83;;
2404;SDS011;1213;43.206;27.922;2023-04-03T15:06:25;6.73;;;4.20;;
2404;SDS011;1213;43.206;27.922;2023-04-03T15:08:51;7.13;;;4.33;;
2404;SDS011;1213;43.206;27.922;2023-04-03T15:11:16;7.10;;;4.40;;
2404;SDS011;1213;43.206;27.922;2023-04-03T15:13:41;7.20;;;5.43;;
2404;SDS011;1213;43.206;27.922;2023-04-03T15:16:17;8.67;;;5.50;;
2404;SDS011;1213;43.206;27.922;2023-04-03T15:18:43;5.37;;;4.27;;
2404;SDS011;1213;43.206;27.922;2023-04-03T15:21:09;5.50;;;4.97;;
2404;SDS011;1213;43.206;27.922;2023-04-03T15:23:35;6.60;;;4.90;;
2404;SDS011;1213;43.206;27.922;2023-04-03T15:26:01;6.73;;;3.90;;
2404;SDS011;1213;43.206;27.922;2023-04-03T15:28:34;10.30;;;7.10;;
2404;SDS011;1213;43.206;27.922;2023-04-03T15:31:00;19.23;;;13.00;;
2404;SDS011;1213;43.206;27.922;2023-04-03T15:33:25;6.87;;;4.90;;
2404;SDS011;1213;43.206;27.922;2023-04-03T15:35:51;7.93;;;4.57;;
2404;SDS011;1213;43.206;27.922;2023-04-03T15:38:16;7.00;;;5.00;;
2404;SDS011;1213;43.206;27.922;2023-04-03T15:40:41;6.90;;;4.47;;
2404;SDS011;1213;43.206;27.922;2023-04-03T15:43:08;9.63;;;4.67;;
2404;SDS011;1213;43.206;27.922;2023-04-03T15:45:34;8.83;;;4.17;;
2404;SDS011;1213;43.206;27.922;2023-04-03T15:48:00;13.17;;;4.77;;
2404;SDS011;1213;43.206;27.922;2023-04-03T15:50:26;5.47;;;4.33;;
2404;SDS011;1213;43.206;27.922;2023-04-03T15:52:51;6.40;;;4.57;;
2404;SDS011;1213;43.206;27.922;2023-04-03T15:55:22;7.30;;;4.90;;
2404;SDS011;1213;43.206;27.922;2023-04-03T15:57:47;5.23;;;3.90;;
2404;SDS011;1213;43.206;27.922;2023-04-03T16:00:12;4.80;;;3.73;;
2404;SDS011;1213;43.206;27.922;2023-04-03T16:02:40;6.00;;;3.80;;
2404;SDS011;1213;43.206;27.922;2023-04-03T16:05:05;4.10;;;3.37;;
2404;SDS011;1213;43.206;27.922;2023-04-03T16:07:31;8.40;;;4.13;;
2404;SDS011;1213;43.206;27.922;2023-04-03T16:09:56;4.00;;;3.53;;
2404;SDS011;1213;43.206;27.922;2023-04-03T16:12:21;10.23;;;5.83;;
2404;SDS011;1213;43.206;27.922;2023-04-03T16:14:47;4.80;;;4.03;;
2404;SDS011;1213;43.206;27.922;2023-04-03T16:17:12;5.33;;;3.23;;
2404;SDS011;1213;43.206;27.922;2023-04-03T16:19:37;4.90;;;3.60;;
2404;SDS011;1213;43.206;27.922;2023-04-03T16:22:03;4.73;;;3.67;;
2404;SDS011;1213;43.206;27.922;2023-04-03T16:24:28;3.97;;;3.17;;
2404;SDS011;1213;43.206;27.922;2023-04-03T16:26:54;4.27;;;3.23;;
2404;SDS011;1213;43.206;27.922;2023-04-03T16:29:19;4.17;;;3.13;;
2404;SDS011;1213;43.206;27.922;2023-04-03T16:31:45;5.83;;;4.37;;